Time;durP1;ratioP1;P1;durP2;ratioP2;P2;SDS_P1;SDS_P2;PMS_P1;PMS_P2;Temp;Humidity;BMP_temperature;BMP_pressure;BME280_temperature;BME280_humidity;BME280_pressure;Samples;Min_cycle;Max_cycle;Signal;HPM_P1;HPM_P2
2022/11/13 00:00:10;;;;;;;13.14;12.14;;;;;;;9.27;81.32;101454.30;465208;114;922641;-70
2022/11/13 00:01:32;;;;;;;12.40;11.21;;;;;;;9.29;81.22;101454.13;465261;114;922638;-71
2022/11/13 00:02:53;;;;;;;13.98;12.61;;;;;;;9.30;81.30;101458.54;465175;114;922578;-71
2022/11/13 00:04:15;;;;;;;12.03;11.03;;;;;;;9.30;81.20;101458.54;465192;114;923012;-72
2022/11/13 00:05:37;;;;;;;12.59;11.08;;;;;;;9.31;81.21;101450.20;463656;114;922546;-73
2022/11/13 00:06:58;;;;;;;11.75;10.87;;;;;;;9.34;81.20;101457.13;461899;114;922535;-71
2022/11/13 00:08:20;;;;;;;12.75;11.57;;;;;;;9.35;81.18;101456.95;461919;114;922650;-71
2022/11/13 00:09:42;;;;;;;11.66;10.48;;;;;;;9.35;81.13;101454.23;461959;114;923281;-71
2022/11/13 00:11:07;;;;;;;11.96;10.61;;;;;;;9.36;81.13;101458.66;461929;114;922423;-74
2022/11/13 00:12:28;;;;;;;13.07;11.91;;;;;;;9.36;81.20;101458.66;461860;114;922491;-72
2022/11/13 00:13:50;;;;;;;12.35;11.05;;;;;;;9.36;81.12;101464.09;461982;114;922629;-72
2022/11/13 00:15:11;;;;;;;;;;;;;;;9.36;81.12;101463.25;465751;114;922229;-72
2022/11/13 00:16:32;;;;;;;12.69;11.46;;;;;;;9.36;81.15;101464.09;463310;114;922429;-72
2022/11/13 00:17:53;;;;;;;12.23;11.11;;;;;;;9.34;81.20;101466.14;465245;114;923064;-69
2022/11/13 00:19:15;;;;;;;12.02;11.07;;;;;;;9.34;81.17;101466.14;465213;114;922636;-72
2022/11/13 00:20:36;;;;;;;11.84;10.82;;;;;;;9.34;81.17;101459.85;465230;113;922549;-72
2022/11/13 00:21:59;;;;;;;12.82;11.82;;;;;;;9.34;81.16;101470.73;465157;114;923517;-71
2022/11/13 00:23:20;;;;;;;11.69;10.74;;;;;;;9.34;81.16;101468.02;465217;114;922543;-72
2022/11/13 00:24:42;;;;;;;12.15;11.21;;;;;;;9.32;81.25;101473.64;465249;114;922871;-72
2022/11/13 00:26:13;;;;;;;12.44;11.23;;;;;;;9.33;81.23;101471.77;465239;113;922565;-71
2022/11/13 00:27:34;;;;;;;11.79;10.88;;;;;;;9.33;81.17;101486.22;464973;114;923032;-70
2022/11/13 00:29:01;;;;;;;12.23;11.23;;;;;;;9.33;81.18;101477.20;465119;114;930355;-72
2022/11/13 00:30:22;;;;;;;12.02;10.93;;;;;;;9.32;81.18;101478.27;459615;114;922573;-73
2022/11/13 00:31:43;;;;;;;11.56;10.38;;;;;;;9.30;81.30;101483.88;457592;116;923514;-73
2022/11/13 00:33:05;;;;;;;12.34;11.39;;;;;;;9.30;81.24;101492.05;457163;116;922531;-73
2022/11/13 00:34:27;;;;;;;12.41;11.32;;;;;;;9.31;81.25;101487.45;464339;112;922539;-71
2022/11/13 00:35:50;;;;;;;12.72;11.22;;;;;;;9.31;81.29;101476.56;465273;113;922567;-73
2022/11/13 00:37:11;;;;;;;12.07;11.01;;;;;;;9.32;81.29;101472.82;465246;114;922518;-72
2022/11/13 00:38:33;;;;;;;13.22;12.09;;;;;;;9.31;81.30;101469.25;465305;114;923029;-72
2022/11/13 00:39:55;;;;;;;12.14;11.09;;;;;;;9.32;81.40;101473.64;465321;114;922673;-72
2022/11/13 00:41:18;;;;;;;12.34;11.11;;;;;;;9.33;81.27;101471.77;465272;113;922543;-72
2022/11/13 00:42:39;;;;;;;11.72;10.67;;;;;;;9.32;81.28;101473.64;465234;114;923031;-72
2022/11/13 00:44:02;;;;;;;12.21;11.15;;;;;;;9.32;81.25;101473.64;465262;114;923134;-72
2022/11/13 00:45:24;;;;;;;12.03;11.11;;;;;;;9.32;81.28;101473.64;465211;114;922536;-72
2022/11/13 00:46:45;;;;;;;10.70;9.76;;;;;;;9.32;81.37;101479.08;465217;114;922548;-72
2022/11/13 00:48:07;;;;;;;13.01;11.96;;;;;;;9.32;81.40;101467.37;465220;114;922725;-71
2022/11/13 00:49:28;;;;;;;11.31;10.49;;;;;;;9.32;81.44;101465.47;465255;114;922592;-71
2022/11/13 00:50:50;;;;;;;12.38;10.94;;;;;;;9.32;81.34;101461.94;465169;113;922714;-71
2022/11/13 00:52:12;;;;;;;11.56;10.54;;;;;;;9.33;81.41;101458.16;465177;114;923028;-71
2022/11/13 00:53:33;;;;;;;11.90;10.78;;;;;;;9.32;81.46;101460.03;465227;114;922608;-71
2022/11/13 00:54:55;;;;;;;10.70;9.89;;;;;;;9.32;81.43;101453.77;465180;114;922508;-72
2022/11/13 00:56:16;;;;;;;11.97;10.87;;;;;;;9.33;81.40;101456.28;465244;113;922493;-71
2022/11/13 00:57:38;;;;;;;11.52;10.49;;;;;;;9.33;81.36;101456.28;465205;114;922539;-71
2022/11/13 00:58:59;;;;;;;12.20;10.97;;;;;;;9.33;81.42;101467.17;465278;114;922521;-71
2022/11/13 01:00:21;;;;;;;11.77;10.68;;;;;;;9.34;81.39;101460.70;465288;114;923086;-72
2022/11/13 01:01:42;;;;;;;12.09;11.14;;;;;;;9.35;81.34;101456.95;465207;114;923345;-72
2022/11/13 01:03:04;;;;;;;11.63;10.63;;;;;;;9.34;81.39;101460.70;465235;114;923027;-72
2022/11/13 01:04:28;;;;;;;11.59;10.61;;;;;;;9.35;81.38;101461.55;465219;114;923113;-72
2022/11/13 01:05:49;;;;;;;10.68;9.86;;;;;;;9.35;81.31;101454.23;465195;114;922573;-72
2022/11/13 01:07:11;;;;;;;14.26;10.59;;;;;;;9.35;81.36;101456.11;465229;114;922549;-72
2022/11/13 01:08:32;;;;;;;11.26;10.23;;;;;;;9.36;81.31;101463.25;465222;114;922730;-71
2022/11/13 01:09:54;;;;;;;10.96;10.02;;;;;;;9.35;81.29;101459.67;465185;114;923008;-72
2022/11/13 01:11:18;;;;;;;11.07;10.24;;;;;;;9.35;81.32;101456.95;465219;114;922557;-73
2022/11/13 01:12:39;;;;;;;11.24;10.24;;;;;;;9.35;81.43;101456.95;465208;114;922654;-72
2022/11/13 01:14:01;;;;;;;10.93;10.09;;;;;;;9.35;81.35;101467.84;465196;114;922538;-72
2022/11/13 01:15:22;;;;;;;11.13;10.21;;;;;;;9.34;81.39;101457.98;465217;114;922521;-72
2022/11/13 01:16:44;;;;;;;11.24;10.09;;;;;;;9.33;81.41;101459.00;465206;114;922601;-71
2022/11/13 01:18:06;;;;;;;9.59;8.81;;;;;;;9.33;81.46;101458.16;465169;114;923111;-72
2022/11/13 01:19:27;;;;;;;9.36;8.51;;;;;;;9.33;81.61;101453.56;465197;114;922564;-72
2022/11/13 01:20:48;;;;;;;10.40;9.60;;;;;;;9.33;81.64;101449.99;465199;114;923015;-72
2022/11/13 01:22:10;;;;;;;10.38;9.51;;;;;;;9.33;81.71;101453.56;465165;114;922557;-72
2022/11/13 01:23:32;;;;;;;9.61;8.74;;;;;;;9.34;81.67;101448.97;465184;114;922638;-72
2022/11/13 01:24:53;;;;;;;9.66;8.75;;;;;;;9.33;81.81;101450.84;465190;114;922613;-72
2022/11/13 01:26:24;;;;;;;9.19;8.47;;;;;;;9.33;81.89;101453.56;465180;113;922996;-71
2022/11/13 01:27:45;;;;;;;8.96;8.21;;;;;;;9.32;81.86;101434.72;465302;114;922480;-72
2022/11/13 01:29:09;;;;;;;9.69;8.73;;;;;;;9.32;81.99;101440.16;465236;114;923486;-72
2022/11/13 01:30:30;;;;;;;9.28;8.52;;;;;;;9.30;82.13;101420.44;460958;114;922538;-72
2022/11/13 01:31:52;;;;;;;9.41;8.49;;;;;;;9.29;82.12;101430.48;460447;115;922606;-71
2022/11/13 01:33:13;;;;;;;9.82;9.07;;;;;;;9.29;82.24;101432.34;465222;114;923052;-72
2022/11/13 01:34:35;;;;;;;9.03;8.18;;;;;;;9.28;82.23;101426.06;457159;116;922603;-71
2022/11/13 01:36:05;;;;;;;8.58;7.91;;;;;;;9.25;82.42;101421.00;457202;115;922645;-72
2022/11/13 01:37:26;;;;;;;8.97;8.29;;;;;;;9.25;82.51;101422.88;457158;116;922507;-72
2022/11/13 01:38:47;;;;;;;9.42;8.62;;;;;;;9.23;82.52;101422.20;457131;116;923159;-71
2022/11/13 01:40:11;;;;;;;8.51;7.74;;;;;;;9.21;82.62;101423.23;457150;116;923035;-74
2022/11/13 01:41:33;;;;;;;8.26;7.56;;;;;;;9.20;82.79;101424.28;457152;116;922914;-72
2022/11/13 01:42:54;;;;;;;8.48;7.34;;;;;;;9.19;82.86;101421.74;457145;116;922587;-72
2022/11/13 01:44:17;;;;;;;8.75;8.04;;;;;;;9.18;82.92;101425.48;457149;116;923021;-71
2022/11/13 01:46:01;;;;;;;8.34;7.69;;;;;;;9.18;83.01;101418.17;457148;115;922681;-72
2022/11/13 01:47:23;;;;;;;8.96;8.17;;;;;;;9.18;83.07;101425.48;457140;116;922894;-72
2022/11/13 01:48:53;;;;;;;8.63;7.94;;;;;;;9.18;83.18;101422.77;457160;116;922615;-73
2022/11/13 01:50:15;;;;;;;7.86;7.17;;;;;;;9.18;83.33;101426.34;457172;116;922555;-71
2022/11/13 01:51:43;;;;;;;7.73;7.09;;;;;;;9.17;83.32;101419.20;457145;116;923011;-71
2022/11/13 01:53:06;;;;;;;7.82;7.06;;;;;;;9.17;83.35;101412.91;457093;116;922992;-72
2022/11/13 01:54:31;;;;;;;8.35;7.59;;;;;;;9.16;83.43;101411.21;457132;116;922578;-72
2022/11/13 01:55:52;;;;;;;7.87;7.26;;;;;;;9.17;83.47;101410.19;457117;115;922974;-72
2022/11/13 01:57:15;;;;;;;7.51;6.93;;;;;;;9.17;83.59;101415.63;457201;116;923075;-72
2022/11/13 01:58:37;;;;;;;7.88;7.28;;;;;;;9.16;83.57;101414.78;457163;116;923025;-72
2022/11/13 02:00:02;;;;;;;8.52;7.66;;;;;;;9.18;83.69;101414.60;457185;116;923116;-71
2022/11/13 02:01:24;;;;;;;7.76;7.19;;;;;;;9.18;83.64;101420.05;457197;115;922928;-71
2022/11/13 02:02:45;;;;;;;7.89;7.29;;;;;;;9.20;83.73;101418.84;457169;116;922620;-72
2022/11/13 02:04:07;;;;;;;9.36;7.66;;;;;;;9.19;83.69;101422.59;457160;116;922525;-72
2022/11/13 02:05:28;;;;;;;7.89;7.18;;;;;;;9.19;83.73;101411.70;459813;114;922702;-72
2022/11/13 02:06:56;;;;;;;7.58;7.08;;;;;;;9.21;83.84;101419.66;465238;114;923017;-72
2022/11/13 02:08:17;;;;;;;8.13;7.52;;;;;;;9.20;83.81;101418.84;465219;114;922659;-72
2022/11/13 02:09:43;;;;;;;8.31;7.45;;;;;;;9.19;83.85;101414.42;465258;114;922586;-72
2022/11/13 02:11:04;;;;;;;7.73;7.11;;;;;;;9.19;83.87;101414.42;465193;114;922534;-73
2022/11/13 02:12:37;;;;;;;7.74;6.87;;;;;;;9.19;83.89;101417.15;465185;114;922855;-73
2022/11/13 02:13:59;;;;;;;8.04;7.34;;;;;;;9.20;83.95;101418.00;465181;114;923016;-72
2022/11/13 02:15:24;;;;;;;7.77;7.18;;;;;;;9.18;83.99;101418.17;457148;116;923008;-72
2022/11/13 02:16:48;;;;;;;8.08;7.48;;;;;;;9.18;84.02;101422.77;462400;114;923066;-73
2022/11/13 02:18:10;;;;;;;7.88;7.24;;;;;;;9.18;84.05;101412.73;465120;114;923122;-73
2022/11/13 02:19:41;;;;;;;8.12;7.48;;;;;;;9.18;84.15;101411.88;465213;114;923012;-72
2022/11/13 02:21:21;;;;;;;7.79;7.20;;;;;;;9.18;84.27;101410.02;464794;114;923104;-72
2022/11/13 02:23:16;;;;;;;7.54;6.90;;;;;;;9.19;84.22;101413.58;464726;114;930578;-73
2022/11/13 02:24:40;;;;;;;7.77;7.21;;;;;;;9.17;84.24;101415.63;445253;118;922813;-72
2022/11/13 02:26:05;;;;;;;7.19;6.53;;;;;;;9.16;84.32;101408.49;445347;118;923303;-71
2022/11/13 02:27:46;;;;;;;6.58;5.94;;;;;;;9.16;84.42;101416.66;445269;118;922789;-72
2022/11/13 02:29:07;;;;;;;7.17;6.57;;;;;;;9.15;84.46;101417.71;445270;118;923145;-73
2022/11/13 02:30:32;;;;;;;7.33;6.70;;;;;;;9.15;84.58;101417.71;455493;114;922985;-72
2022/11/13 02:31:53;;;;;;;7.31;6.73;;;;;;;9.13;84.65;101408.88;456026;114;923011;-72
2022/11/13 02:33:30;;;;;;;7.63;7.07;;;;;;;9.14;84.57;101410.57;465190;114;923182;-72
2022/11/13 02:34:51;;;;;;;6.89;6.32;;;;;;;9.15;84.63;101412.27;457168;116;922662;-72
2022/11/13 02:36:14;;;;;;;7.44;6.83;;;;;;;9.15;84.68;101414.98;457147;115;922643;-72
2022/11/13 02:37:35;;;;;;;7.01;6.51;;;;;;;9.16;84.71;101419.38;457130;116;922536;-73
2022/11/13 02:39:03;;;;;;;6.56;5.96;;;;;;;9.16;84.81;101411.21;457145;116;922602;-71
2022/11/13 02:40:25;;;;;;;6.43;5.96;;;;;;;9.16;84.84;101409.34;457102;115;923018;-72
2022/11/13 02:41:46;;;;;;;7.46;6.86;;;;;;;9.17;84.84;101405.59;457085;116;923356;-72
2022/11/13 02:43:07;;;;;;;6.86;6.01;;;;;;;9.19;84.84;101405.41;457064;116;922556;-72
2022/11/13 02:44:29;;;;;;;7.01;6.42;;;;;;;9.20;84.93;101409.83;457135;116;922670;-73
2022/11/13 02:45:50;;;;;;;6.98;6.44;;;;;;;9.20;84.98;101405.23;457101;115;922519;-73
2022/11/13 02:47:12;;;;;;;6.95;6.39;;;;;;;9.22;84.88;101413.19;457147;116;922563;-73
2022/11/13 02:48:33;;;;;;;6.23;5.73;;;;;;;9.21;84.92;101406.91;457158;116;922677;-73
2022/11/13 02:49:54;;;;;;;6.82;6.17;;;;;;;9.23;84.93;101403.16;457141;116;922491;-72
2022/11/13 02:51:16;;;;;;;6.26;5.76;;;;;;;9.24;84.94;101404.86;457142;115;922772;-72
2022/11/13 02:52:38;;;;;;;6.24;5.74;;;;;;;9.23;84.90;101393.13;457148;116;922551;-71
2022/11/13 02:53:59;;;;;;;5.65;5.10;;;;;;;9.24;84.94;101400.26;457141;116;922710;-72
2022/11/13 02:55:21;;;;;;;5.69;5.29;;;;;;;9.25;85.03;101392.95;457160;116;922952;-72
2022/11/13 02:56:41;;;;;;;;;;;;;;;9.24;85.05;101391.25;460887;116;922062;-72
2022/11/13 02:58:03;;;;;;;4.63;4.33;;;;;;;9.23;84.97;101387.68;457112;116;922920;-73
2022/11/13 02:59:24;;;;;;;5.81;5.14;;;;;;;9.22;85.22;101396.87;457179;116;923068;-71
2022/11/13 03:00:45;;;;;;;5.26;4.82;;;;;;;9.20;85.22;101382.63;457200;115;922601;-71
2022/11/13 03:02:07;;;;;;;5.56;5.10;;;;;;;9.20;85.35;101388.06;457181;116;922505;-71
2022/11/13 03:03:29;;;;;;;4.92;4.53;;;;;;;9.19;85.38;101380.92;457161;116;923401;-71
2022/11/13 03:04:52;;;;;;;5.04;4.62;;;;;;;9.19;85.35;101384.50;457202;116;922991;-71
2022/11/13 03:06:16;;;;;;;5.30;4.86;;;;;;;9.20;85.42;101382.63;457188;115;922663;-72
2022/11/13 03:07:37;;;;;;;4.79;4.47;;;;;;;9.20;85.37;101378.03;457188;116;922574;-72
2022/11/13 03:08:59;;;;;;;4.37;4.07;;;;;;;9.21;85.42;101374.25;457190;116;922673;-72
2022/11/13 03:10:20;;;;;;;4.53;4.13;;;;;;;9.23;85.35;101384.11;457184;116;922510;-72
2022/11/13 03:11:42;;;;;;;4.42;4.12;;;;;;;9.23;85.35;101382.23;457241;116;922970;-71
2022/11/13 03:13:04;;;;;;;3.91;3.71;;;;;;;9.23;85.36;101374.08;457183;116;922977;-73
2022/11/13 03:14:25;;;;;;;4.84;4.47;;;;;;;9.24;85.40;101377.64;457236;116;922837;-72
2022/11/13 03:15:47;;;;;;;4.18;3.88;;;;;;;9.25;85.34;101374.74;457179;115;923537;-72
2022/11/13 03:17:08;;;;;;;4.77;4.13;;;;;;;9.26;85.41;101370.15;457233;116;922548;-71
2022/11/13 03:18:30;;;;;;;4.67;4.37;;;;;;;9.27;85.40;101369.94;457133;116;922965;-71
2022/11/13 03:19:51;;;;;;;5.02;4.13;;;;;;;9.28;85.47;101374.36;457144;116;923019;-72
2022/11/13 03:21:14;;;;;;;4.41;4.06;;;;;;;9.28;85.39;101368.91;457138;115;922993;-72
2022/11/13 03:22:36;;;;;;;4.51;4.21;;;;;;;9.28;85.46;101373.50;457132;116;922577;-71
2022/11/13 03:23:57;;;;;;;4.53;4.17;;;;;;;9.27;85.42;101364.50;457086;116;922546;-71
2022/11/13 03:25:18;;;;;;;4.40;4.10;;;;;;;9.28;85.46;101371.64;457122;116;922947;-71
2022/11/13 03:26:40;;;;;;;4.75;4.03;;;;;;;9.28;85.41;101368.06;457109;116;922530;-71
2022/11/13 03:28:02;;;;;;;4.79;4.39;;;;;;;9.28;85.46;101366.19;457126;116;923023;-72
2022/11/13 03:29:23;;;;;;;5.42;3.94;;;;;;;9.27;85.45;101363.65;457140;116;922700;-72
2022/11/13 03:30:46;;;;;;;5.02;4.61;;;;;;;9.28;85.49;101362.63;457114;115;922893;-72
2022/11/13 03:32:08;;;;;;;4.63;4.23;;;;;;;9.26;85.58;101356.55;459060;114;922617;-72
2022/11/13 03:33:30;;;;;;;4.54;4.04;;;;;;;9.27;85.59;101361.77;465220;114;922631;-72
2022/11/13 03:34:51;;;;;;;4.87;4.47;;;;;;;9.25;85.55;101363.86;457177;116;922528;-72
2022/11/13 03:36:13;;;;;;;4.63;4.23;;;;;;;9.24;85.56;101351.28;457168;115;922594;-72
2022/11/13 03:37:35;;;;;;;4.58;4.27;;;;;;;9.24;85.57;101354.00;457190;116;922526;-72
2022/11/13 03:38:57;;;;;;;4.30;4.03;;;;;;;9.24;85.59;101359.45;457170;116;922549;-73
2022/11/13 03:40:18;;;;;;;4.26;3.96;;;;;;;9.23;85.59;101349.58;457210;116;922582;-71
2022/11/13 03:41:40;;;;;;;4.93;4.53;;;;;;;9.23;85.61;101346.86;457154;116;923085;-72
2022/11/13 03:43:01;;;;;;;4.90;4.58;;;;;;;9.21;85.68;101344.32;456998;116;922543;-72
2022/11/13 03:44:23;;;;;;;4.97;4.61;;;;;;;9.22;85.61;101356.05;457142;116;922588;-72
2022/11/13 03:45:45;;;;;;;4.02;3.72;;;;;;;9.22;85.67;101347.89;457127;115;923075;-72
2022/11/13 03:47:07;;;;;;;4.57;4.21;;;;;;;9.23;85.66;101337.85;457183;116;922547;-72
2022/11/13 03:48:28;;;;;;;4.91;4.51;;;;;;;9.22;85.73;101342.45;457147;116;922620;-72
2022/11/13 03:49:50;;;;;;;4.62;4.25;;;;;;;9.22;85.68;101342.45;457194;116;922589;-72
2022/11/13 03:51:11;;;;;;;5.48;3.73;;;;;;;9.22;85.72;101331.56;457137;115;922634;-71
2022/11/13 03:52:33;;;;;;;4.72;4.32;;;;;;;9.23;85.72;101333.26;457164;116;922925;-72
2022/11/13 03:53:54;;;;;;;4.12;3.81;;;;;;;9.24;85.72;101328.66;457152;116;922583;-73
2022/11/13 03:55:16;;;;;;;4.16;3.86;;;;;;;9.25;85.71;101335.80;457151;116;922545;-72
2022/11/13 03:56:38;;;;;;;3.51;3.31;;;;;;;9.26;85.75;101337.50;457183;116;923004;-72
2022/11/13 03:57:59;;;;;;;3.94;3.55;;;;;;;9.25;85.78;101335.80;457202;116;922716;-73
2022/11/13 03:59:20;;;;;;;4.08;3.70;;;;;;;9.25;85.83;101335.80;457169;116;922532;-73
2022/11/13 04:00:44;;;;;;;4.08;3.75;;;;;;;9.25;85.83;101330.36;457151;115;922559;-72
2022/11/13 04:02:05;;;;;;;3.96;3.46;;;;;;;9.25;85.85;101327.64;457148;116;923028;-73
2022/11/13 04:03:27;;;;;;;4.73;3.67;;;;;;;9.25;85.85;101333.08;457190;116;922643;-72
2022/11/13 04:04:49;;;;;;;3.59;3.32;;;;;;;9.25;85.96;101338.52;457239;116;922591;-74
2022/11/13 04:06:10;;;;;;;3.68;3.46;;;;;;;9.24;85.89;101331.38;457221;115;923089;-72
2022/11/13 04:07:32;;;;;;;3.82;3.53;;;;;;;9.23;86.02;101335.98;455125;114;922624;-73
2022/11/13 04:08:53;;;;;;;3.73;3.43;;;;;;;9.25;85.94;101328.48;454653;116;923070;-72
2022/11/13 04:10:15;;;;;;;3.22;3.00;;;;;;;9.24;85.95;101331.38;454588;116;923033;-71
2022/11/13 04:11:36;;;;;;;3.57;3.28;;;;;;;9.24;86.01;101337.67;454587;116;922536;-71
2022/11/13 04:12:58;;;;;;;3.73;3.33;;;;;;;9.25;85.96;101330.36;454642;116;922553;-72
2022/11/13 04:14:20;;;;;;;3.34;3.09;;;;;;;9.25;85.99;101331.20;454553;116;923091;-72
2022/11/13 04:15:41;;;;;;;3.24;3.03;;;;;;;9.25;85.98;101339.37;454615;116;923023;-72
2022/11/13 04:17:03;;;;;;;3.33;3.10;;;;;;;9.26;86.09;101332.90;460833;115;922493;-73
2022/11/13 04:18:25;;;;;;;2.88;2.67;;;;;;;9.27;86.02;101334.56;461009;115;922956;-72
2022/11/13 04:19:47;;;;;;;3.14;2.94;;;;;;;9.28;86.12;101340.85;460992;115;922623;-70
2022/11/13 04:21:08;;;;;;;3.26;3.06;;;;;;;9.28;86.06;101333.53;460947;115;922547;-72
2022/11/13 04:22:30;;;;;;;3.17;2.97;;;;;;;9.28;86.10;101335.41;461033;115;922675;-72
2022/11/13 04:23:51;;;;;;;3.32;3.12;;;;;;;9.28;86.07;101336.26;460996;115;922593;-72
2022/11/13 04:25:13;;;;;;;3.41;3.11;;;;;;;9.29;86.08;101339.83;461036;115;923015;-72
2022/11/13 04:26:34;;;;;;;3.01;2.78;;;;;;;9.30;86.08;101339.65;461444;114;923156;-72
2022/11/13 04:27:56;;;;;;;2.79;2.59;;;;;;;9.29;86.13;101335.23;462032;114;922611;-72
2022/11/13 04:29:17;;;;;;;3.32;3.12;;;;;;;9.29;86.06;101337.95;462004;114;922530;-73
2022/11/13 04:30:38;;;;;;;3.32;3.07;;;;;;;9.31;86.12;101335.05;454031;116;922575;-72
2022/11/13 04:32:00;;;;;;;2.63;2.48;;;;;;;9.30;86.08;101339.65;455027;114;922529;-73
2022/11/13 04:33:21;;;;;;;3.06;2.86;;;;;;;9.31;86.16;101343.22;461970;114;922780;-72
2022/11/13 04:34:43;;;;;;;3.47;2.77;;;;;;;9.31;86.09;101341.34;454041;116;922878;-71
2022/11/13 04:36:05;;;;;;;3.23;3.01;;;;;;;9.31;86.06;101345.94;454047;116;922652;-71
2022/11/13 04:37:26;;;;;;;3.54;2.99;;;;;;;9.30;86.12;101345.09;454005;116;922545;-71
2022/11/13 04:38:48;;;;;;;3.20;3.00;;;;;;;9.32;86.17;101353.08;453998;116;922997;-72
2022/11/13 04:40:10;;;;;;;2.57;2.42;;;;;;;9.31;86.13;101348.66;454067;116;923362;-72
2022/11/13 04:43:04;;;;;;;3.30;3.00;;;;;;;9.32;86.18;101347.63;435775;121;923492;-71
2022/11/13 04:44:25;;;;;;;2.69;2.49;;;;;;;9.32;86.11;101348.45;439837;116;922826;-71
2022/11/13 04:45:47;;;;;;;2.97;2.77;;;;;;;9.32;86.14;101351.17;454017;116;923015;-72
2022/11/13 04:47:09;;;;;;;2.57;2.42;;;;;;;9.33;86.24;101349.30;454095;116;922636;-72
2022/11/13 04:48:30;;;;;;;2.89;2.69;;;;;;;9.33;86.16;101352.86;454075;116;923113;-72
2022/11/13 04:49:52;;;;;;;3.03;2.83;;;;;;;9.33;86.15;101352.02;454097;116;922520;-72
2022/11/13 04:51:13;;;;;;;2.42;2.22;;;;;;;9.34;86.17;101351.84;454109;116;922930;-72
2022/11/13 04:52:35;;;;;;;2.51;2.37;;;;;;;9.36;86.12;101357.95;454115;116;922503;-72
2022/11/13 04:53:57;;;;;;;2.59;2.39;;;;;;;9.37;86.19;101361.52;454027;116;922553;-72
2022/11/13 04:55:19;;;;;;;2.91;2.71;;;;;;;9.38;86.10;101360.46;454077;116;922603;-72
2022/11/13 04:56:40;;;;;;;2.52;2.40;;;;;;;9.39;86.15;101363.00;454054;116;922468;-72
2022/11/13 04:58:01;;;;;;;3.14;2.54;;;;;;;9.40;86.09;101359.25;454030;116;922974;-72
2022/11/13 04:59:23;;;;;;;2.95;2.67;;;;;;;9.41;86.08;101363.67;454055;116;923069;-72
2022/11/13 05:00:45;;;;;;;2.40;2.23;;;;;;;9.41;85.97;101358.23;454028;116;922779;-72
2022/11/13 05:02:06;;;;;;;2.21;2.11;;;;;;;9.45;86.04;101362.25;454060;116;922551;-73
2022/11/13 05:03:41;;;;;;;1.95;1.85;;;;;;;9.45;85.97;101364.98;457039;112;923194;-73
2022/11/13 05:05:03;;;;;;;2.22;2.01;;;;;;;9.45;85.84;101361.41;458711;115;922749;-72
2022/11/13 05:06:26;;;;;;;1.99;1.87;;;;;;;9.47;85.83;101367.52;454032;116;922606;-72
2022/11/13 05:07:47;;;;;;;2.53;2.34;;;;;;;9.48;85.80;101358.33;454023;116;922959;-73
2022/11/13 05:09:10;;;;;;;2.30;2.16;;;;;;;9.47;85.83;101367.52;454019;116;922549;-73
2022/11/13 05:10:31;;;;;;;2.19;2.02;;;;;;;9.48;85.73;101363.77;454053;116;922708;-70
2022/11/13 05:11:55;;;;;;;3.33;2.14;;;;;;;9.48;85.71;101364.58;454051;116;923043;-72
2022/11/13 05:13:17;;;;;;;2.24;2.14;;;;;;;9.51;85.55;101372.39;454045;116;923100;-70
2022/11/13 05:14:39;;;;;;;2.13;1.97;;;;;;;9.52;85.47;101376.81;454034;116;923093;-72
2022/11/13 05:16:06;;;;;;;2.02;1.90;;;;;;;9.53;85.48;101367.61;453975;116;922927;-73
2022/11/13 05:17:28;;;;;;;2.01;1.91;;;;;;;9.52;85.48;101363.20;454039;116;922569;-73
2022/11/13 05:18:49;;;;;;;1.93;1.83;;;;;;;9.54;85.41;101368.43;454036;116;923023;-72
2022/11/13 05:20:11;;;;;;;1.96;1.86;;;;;;;9.54;85.34;101366.55;454032;116;922821;-72
2022/11/13 05:21:34;;;;;;;2.31;2.14;;;;;;;9.56;85.27;101363.65;454051;116;922695;-72
2022/11/13 05:22:56;;;;;;;1.90;1.79;;;;;;;9.57;85.22;101366.19;454042;116;922544;-72
2022/11/13 05:24:17;;;;;;;2.31;2.13;;;;;;;9.58;85.19;101364.31;454065;116;923091;-73
2022/11/13 05:25:39;;;;;;;2.28;2.08;;;;;;;9.60;85.13;101373.97;454076;116;922662;-72
2022/11/13 05:27:00;;;;;;;1.73;1.63;;;;;;;9.61;85.13;101367.50;455756;115;923171;-71
2022/11/13 05:28:22;;;;;;;1.84;1.74;;;;;;;9.63;84.98;101361.87;457206;116;922538;-70
2022/11/13 05:29:43;;;;;;;2.58;1.82;;;;;;;9.64;84.97;101363.56;457238;116;922997;-72
2022/11/13 05:31:08;;;;;;;1.86;1.68;;;;;;;9.65;84.88;101370.67;457631;116;922520;-72
2022/11/13 05:32:30;;;;;;;1.73;1.60;;;;;;;9.66;84.76;101375.09;462119;114;922566;-71
2022/11/13 05:33:52;;;;;;;1.88;1.57;;;;;;;9.68;84.71;101374.91;467049;112;923171;-72
2022/11/13 05:35:14;;;;;;;1.60;1.50;;;;;;;9.70;84.58;101372.85;471176;112;923084;-73
2022/11/13 05:36:35;;;;;;;1.88;1.67;;;;;;;9.72;84.49;101377.06;471170;112;922975;-72
2022/11/13 05:37:59;;;;;;;1.80;1.70;;;;;;;9.73;84.47;101375.19;471144;112;922459;-72
2022/11/13 05:39:21;;;;;;;1.90;1.80;;;;;;;9.74;84.33;101375.00;471133;112;923087;-70
2022/11/13 05:40:42;;;;;;;1.76;1.57;;;;;;;9.76;84.33;101374.82;471163;112;922473;-71
2022/11/13 05:42:04;;;;;;;1.54;1.44;;;;;;;9.77;84.15;101377.33;471243;112;922556;-72
2022/11/13 05:43:26;;;;;;;1.88;1.78;;;;;;;9.79;84.09;101368.98;471189;112;922675;-72
2022/11/13 05:44:47;;;;;;;1.65;1.55;;;;;;;9.81;84.02;101375.09;471185;112;922547;-73
2022/11/13 05:46:12;;;;;;;1.62;1.41;;;;;;;9.83;83.87;101375.72;471196;112;922494;-72
2022/11/13 05:47:34;;;;;;;2.22;1.68;;;;;;;9.84;83.91;101382.87;471180;112;922774;-72
2022/11/13 05:48:59;;;;;;;;;;;;;;;9.85;83.82;101379.96;475097;112;922020;-72
2022/11/13 05:50:20;;;;;;;1.52;1.42;;;;;;;9.86;83.68;101378.94;471245;112;922478;-72
2022/11/13 05:51:41;;;;;;;1.33;1.23;;;;;;;9.85;83.63;101374.52;471203;112;923070;-71
2022/11/13 05:53:03;;;;;;;1.49;1.26;;;;;;;9.86;83.58;101375.36;471234;112;923083;-71
2022/11/13 05:54:25;;;;;;;1.62;1.52;;;;;;;9.87;83.50;101374.30;471197;112;923044;-73
2022/11/13 05:55:46;;;;;;;1.76;1.34;;;;;;;9.88;83.35;101370.55;471190;112;923077;-71
2022/11/13 05:57:08;;;;;;;1.57;1.47;;;;;;;9.91;83.31;101367.45;471211;112;922941;-74
2022/11/13 05:58:30;;;;;;;2.08;1.49;;;;;;;9.91;83.06;101373.75;471188;112;922748;-72
2022/11/13 05:59:51;;;;;;;1.57;1.28;;;;;;;9.93;83.01;101368.09;467585;112;922552;-71
2022/11/13 06:01:28;;;;;;;1.43;1.34;;;;;;;9.95;82.86;101379.65;465234;113;922974;-73
2022/11/13 06:02:49;;;;;;;3.33;1.45;;;;;;;9.97;82.71;101372.98;465210;114;922525;-71
2022/11/13 06:04:10;;;;;;;;;;;;;;;9.99;82.68;101375.50;469061;114;922184;-72
2022/11/13 06:05:36;;;;;;;1.48;1.38;;;;;;;10.00;82.51;101369.87;464010;114;922448;-73
2022/11/13 06:06:57;;;;;;;1.36;1.26;;;;;;;10.01;82.43;101378.89;461932;114;922938;-72
2022/11/13 06:08:19;;;;;;;2.13;1.20;;;;;;;10.03;82.43;101376.83;461932;114;922583;-72
2022/11/13 06:09:41;;;;;;;1.77;1.67;;;;;;;10.04;82.29;101375.77;461913;114;922492;-73
2022/11/13 06:11:07;;;;;;;1.55;1.45;;;;;;;10.07;82.18;101374.55;461939;114;922514;-71
2022/11/13 06:12:29;;;;;;;1.38;1.28;;;;;;;10.09;82.02;101375.22;461968;114;922990;-72
2022/11/13 06:13:52;;;;;;;1.87;1.19;;;;;;;10.11;81.97;101384.88;462011;114;922555;-71
2022/11/13 06:15:13;;;;;;;1.91;1.59;;;;;;;10.13;81.81;101380.09;462012;114;922590;-72
2022/11/13 06:16:37;;;;;;;2.12;1.91;;;;;;;10.15;81.73;101371.69;463517;114;922737;-71
2022/11/13 06:17:58;;;;;;;1.40;1.30;;;;;;;10.16;81.64;101379.72;465330;114;923100;-71
2022/11/13 06:19:20;;;;;;;1.80;1.65;;;;;;;10.18;81.55;101368.63;465245;114;922494;-71
2022/11/13 06:20:41;;;;;;;1.56;1.34;;;;;;;10.20;81.33;101382.92;465202;113;922533;-69
2022/11/13 06:22:02;;;;;;;1.27;1.17;;;;;;;10.22;81.33;101378.10;465174;114;923217;-72
2022/11/13 06:23:24;;;;;;;1.72;1.47;;;;;;;10.23;81.20;101368.89;465201;114;922577;-73